Time;durP1;ratioP1;P1;durP2;ratioP2;P2;SDS_P1;SDS_P2;PMS_P1;PMS_P2;Temp;Humidity;BMP_temperature;BMP_pressure;BME280_temperature;BME280_humidity;BME280_pressure;Samples;Min_cycle;Max_cycle;Signal;HPM_P1;HPM_P2
2020/12/02 00:00:30;;;;;;;19.52;11.08;;;;;;;5.45;58.78;101661.38;1780677;79;21122;-78
2020/12/02 00:03:08;;;;;;;17.05;10.20;;;;;;;5.41;58.74;101659.89;1804490;79;21098;-78
2020/12/02 00:05:36;;;;;;;19.55;10.85;;;;;;;5.47;58.49;101663.48;1807609;79;21784;-78
2020/12/02 00:08:12;;;;;;;19.35;11.18;;;;;;;5.38;58.63;101670.22;1804231;79;21117;-77
2020/12/02 00:10:40;;;;;;;17.70;11.10;;;;;;;5.34;58.74;101672.20;1803288;79;21182;-77
2020/12/02 00:13:25;;;;;;;21.77;11.57;;;;;;;5.32;58.89;101671.46;1804657;79;21070;-77
2020/12/02 00:15:52;;;;;;;19.57;11.20;;;;;;;5.34;58.87;101670.87;1803557;79;21378;-77
2020/12/02 00:18:20;;;;;;;18.27;11.63;;;;;;;5.39;58.87;101673.25;1803606;79;21948;-77
2020/12/02 00:20:49;;;;;;;17.57;11.10;;;;;;;5.40;58.88;101670.11;1799508;79;21636;-78
2020/12/02 00:23:16;;;;;;;16.70;11.35;;;;;;;5.46;58.80;101666.62;1803440;79;21087;-77
2020/12/02 00:25:44;;;;;;;19.95;11.55;;;;;;;5.48;58.64;101674.00;1800750;79;21118;-77
2020/12/02 00:28:12;;;;;;;20.20;11.60;;;;;;;5.42;58.71;101667.75;1738636;82;21115;-77
2020/12/02 00:30:41;;;;;;;17.05;10.18;;;;;;;5.35;58.74;101662.42;1739798;81;21201;-77
2020/12/02 00:33:15;;;;;;;18.85;10.80;;;;;;;5.37;58.82;101657.89;1738037;82;21201;-77
2020/12/02 00:35:43;;;;;;;21.05;12.00;;;;;;;5.39;58.88;101665.28;1741876;82;21147;-77
2020/12/02 00:38:12;;;;;;;18.80;10.82;;;;;;;5.42;58.87;101662.44;1729699;82;21142;-77
2020/12/02 00:40:46;;;;;;;18.67;11.10;;;;;;;5.45;58.86;101662.27;1736319;82;21632;-77
2020/12/02 00:43:18;;;;;;;19.95;11.57;;;;;;;5.47;58.78;101657.69;1733112;82;21158;-77
2020/12/02 00:45:48;;;;;;;23.73;11.08;;;;;;;5.48;58.73;101654.08;1738046;82;21090;-77
2020/12/02 00:48:20;;;;;;;18.73;9.55;;;;;;;5.48;58.74;101663.38;1710837;82;21094;-77
2020/12/02 00:50:49;;;;;;;17.90;10.55;;;;;;;5.55;58.66;101666.05;1733346;82;21434;-77
2020/12/02 00:53:23;;;;;;;18.10;9.93;;;;;;;5.60;58.51;101658.62;1737868;82;21481;-77
2020/12/02 00:55:51;;;;;;;23.20;12.70;;;;;;;5.62;58.45;101665.64;1719112;82;22199;-77
2020/12/02 00:59:00;;;;;;;21.02;11.45;;;;;;;5.62;58.46;101664.31;1745269;82;21542;-77
2020/12/02 01:01:40;;;;;;;19.40;11.50;;;;;;;5.63;58.24;101661.55;1797534;79;21070;-77
2020/12/02 01:04:13;;;;;;;23.38;12.15;;;;;;;5.59;58.20;101661.39;1801173;79;21042;-78
2020/12/02 01:06:43;;;;;;;18.70;10.55;;;;;;;5.49;58.45;101666.41;1804034;79;21166;-77
2020/12/02 01:09:14;;;;;;;19.00;9.45;;;;;;;5.58;58.19;101654.34;1804311;79;21353;-77
2020/12/02 01:11:44;;;;;;;19.12;11.35;;;;;;;5.50;58.28;101656.66;1803454;79;21166;-78
2020/12/02 01:14:15;;;;;;;20.48;11.12;;;;;;;5.55;58.19;101656.73;1799880;79;21577;-78
2020/12/02 01:16:49;;;;;;;20.60;11.30;;;;;;;5.56;58.17;101657.11;1804694;79;21086;-77
2020/12/02 01:19:22;;;;;;;23.52;12.68;;;;;;;5.55;58.25;101655.41;1731565;82;21061;-77
2020/12/02 01:21:55;;;;;;;25.52;13.18;;;;;;;5.52;58.28;101651.61;1760198;79;21212;-76
2020/12/02 01:24:29;;;;;;;22.45;12.33;;;;;;;5.52;58.43;101651.61;1785444;79;21132;-76
2020/12/02 01:27:20;;;;;;;19.07;11.25;;;;;;;5.52;58.39;101644.96;1731555;82;21087;-76
2020/12/02 01:29:48;;;;;;;17.75;9.45;;;;;;;5.54;58.40;101647.06;1773933;79;21105;-77
2020/12/02 01:32:17;;;;;;;17.02;10.10;;;;;;;5.57;58.41;101647.33;1729124;82;21131;-78
2020/12/02 01:34:48;;;;;;;17.90;10.30;;;;;;;5.58;58.30;101653.87;1768163;81;21203;-76
2020/12/02 01:37:24;;;;;;;20.92;12.23;;;;;;;5.59;58.26;101654.27;1769420;81;21191;-77
2020/12/02 01:40:19;;;;;;;21.37;11.85;;;;;;;5.58;58.25;101647.70;1769160;81;21141;-75
2020/12/02 01:42:55;;;;;;;23.80;13.10;;;;;;;5.58;58.35;101645.89;1768892;81;21057;-79
2020/12/02 01:45:26;;;;;;;21.25;11.75;;;;;;;5.58;58.46;101647.70;1769782;81;21151;-75
2020/12/02 01:48:28;;;;;;;16.80;9.05;;;;;;;5.60;58.49;101643.16;1769935;81;21357;-76
2020/12/02 01:51:36;;;;;;;20.55;10.18;;;;;;;5.59;58.35;101643.64;1770774;81;21155;-78
2020/12/02 01:54:32;;;;;;;19.57;10.15;;;;;;;5.56;58.25;101631.86;1771133;81;21500;-75
2020/12/02 01:57:11;;;;;;;20.02;10.90;;;;;;;5.51;58.39;101629.13;1770873;81;21050;-75
2020/12/02 02:00:12;;;;;;;17.37;10.70;;;;;;;5.47;58.47;101629.79;1769744;81;21522;-76
2020/12/02 02:03:12;;;;;;;22.10;11.70;;;;;;;5.47;58.51;101625.80;1769941;81;21342;-77
2020/12/02 02:05:57;;;;;;;16.52;9.48;;;;;;;5.46;58.56;101621.44;1764110;81;21112;-77
2020/12/02 02:08:28;;;;;;;17.57;10.10;;;;;;;5.47;58.64;101620.97;1770033;81;21109;-75
2020/12/02 02:10:57;;;;;;;19.50;11.38;;;;;;;5.48;58.64;101622.19;1768744;81;21008;-76
2020/12/02 02:13:48;;;;;;;22.93;12.30;;;;;;;5.48;58.73;101626.17;1769562;81;21162;-76
2020/12/02 02:16:26;;;;;;;19.48;10.58;;;;;;;5.39;58.94;101623.25;1764174;81;21196;-76
2020/12/02 02:19:03;;;;;;;21.27;11.53;;;;;;;5.39;59.06;101617.45;1853689;77;23315;-78
2020/12/02 02:21:34;;;;;;;19.92;11.33;;;;;;;5.37;59.13;101627.34;1824754;78;21199;-77
2020/12/02 02:24:02;;;;;;;20.85;9.70;;;;;;;5.37;59.06;101621.17;1858294;77;21358;-76
2020/12/02 02:26:46;;;;;;;20.90;11.05;;;;;;;5.39;59.04;101620.11;1858754;77;21170;-77
2020/12/02 02:29:34;;;;;;;21.12;11.20;;;;;;;5.42;58.97;101622.58;1858986;77;21537;-78
2020/12/02 02:32:15;;;;;;;19.95;11.38;;;;;;;5.38;59.16;101622.88;1817577;79;21176;-78
2020/12/02 02:34:47;;;;;;;20.70;11.38;;;;;;;5.47;58.91;101624.95;1858127;77;21159;-76
2020/12/02 02:37:17;;;;;;;23.25;11.53;;;;;;;5.46;58.84;101621.44;1802307;79;21189;-76
2020/12/02 02:39:46;;;;;;;23.42;11.50;;;;;;;5.42;58.81;101619.92;1834509;78;21162;-78
2020/12/02 02:42:38;;;;;;;20.00;10.25;;;;;;;5.40;58.88;101623.14;1834820;78;21138;-77
2020/12/02 02:45:20;;;;;;;17.00;9.25;;;;;;;5.37;59.00;101623.35;1834963;78;21118;-76
2020/12/02 02:47:48;;;;;;;19.20;9.88;;;;;;;5.37;58.97;101619.37;1835816;77;21117;-78
2020/12/02 02:50:17;;;;;;;19.35;9.60;;;;;;;5.35;59.14;101626.56;1834039;77;21861;-78
2020/12/02 02:52:47;;;;;;;18.05;9.83;;;;;;;5.41;58.96;101628.86;1835857;77;21146;-77
2020/12/02 02:55:20;;;;;;;17.85;9.85;;;;;;;5.44;58.86;101627.31;1843025;77;21584;-77
2020/12/02 02:57:48;;;;;;;20.68;10.75;;;;;;;5.47;58.84;101625.80;1800904;78;21165;-78
2020/12/02 03:00:27;;;;;;;17.55;10.38;;;;;;;5.46;58.81;101634.73;1811682;78;21599;-77
2020/12/02 03:02:56;;;;;;;18.62;8.78;;;;;;;5.44;58.79;101631.30;1858329;77;21345;-78
2020/12/02 03:05:25;;;;;;;16.57;9.30;;;;;;;5.43;58.88;101630.92;1829343;77;21122;-79
2020/12/02 03:08:02;;;;;;;12.63;7.72;;;;;;;5.46;58.95;101629.42;1799612;78;21198;-80
2020/12/02 03:10:33;;;;;;;14.33;8.35;;;;;;;5.52;58.90;101641.45;1838027;77;21157;-79
2020/12/02 03:13:07;;;;;;;15.08;7.33;;;;;;;5.53;58.78;101635.19;1843124;77;21545;-77
2020/12/02 03:15:35;;;;;;;14.60;8.83;;;;;;;5.46;58.81;101637.39;1793269;78;21377;-78
2020/12/02 03:18:03;;;;;;;13.98;8.23;;;;;;;5.47;58.72;101633.77;1805998;77;21605;-77
2020/12/02 03:20:33;;;;;;;12.95;7.33;;;;;;;5.51;58.66;101629.98;1837044;77;21182;-77
2020/12/02 03:23:01;;;;;;;12.35;7.45;;;;;;;5.53;58.63;101633.37;1803310;78;21695;-76
2020/12/02 03:25:32;;;;;;;13.13;7.60;;;;;;;5.56;58.58;101637.66;1833281;77;21091;-77
2020/12/02 03:28:00;;;;;;;15.13;9.15;;;;;;;5.47;58.74;101635.10;1796936;78;21350;-76
2020/12/02 03:30:28;;;;;;;12.85;7.72;;;;;;;5.44;58.97;101637.94;1846544;77;21508;-77
2020/12/02 03:32:56;;;;;;;13.13;8.10;;;;;;;5.54;58.86;101635.11;1820286;78;21108;-79
2020/12/02 03:35:24;;;;;;;12.82;8.23;;;;;;;5.58;58.77;101636.59;1812838;77;21588;-78
2020/12/02 03:37:54;;;;;;;13.45;8.33;;;;;;;5.59;58.72;101643.64;1832129;77;21158;-78
2020/12/02 03:40:22;;;;;;;10.88;6.45;;;;;;;5.59;58.64;101634.34;1800080;78;21792;-78
2020/12/02 03:42:51;;;;;;;11.40;6.62;;;;;;;5.58;58.58;101633.09;1845979;77;21485;-78
2020/12/02 03:45:19;;;;;;;12.78;6.47;;;;;;;5.57;58.67;101630.91;1805617;78;21158;-78
2020/12/02 03:47:47;;;;;;;10.70;6.78;;;;;;;5.50;58.97;101633.59;1839018;77;21564;-77
2020/12/02 03:50:15;;;;;;;9.65;7.17;;;;;;;5.59;58.83;101629.50;1837042;77;21129;-78
2020/12/02 03:52:43;;;;;;;11.12;7.08;;;;;;;5.64;58.59;101634.52;1836694;77;21782;-78
2020/12/02 03:55:11;;;;;;;13.95;7.85;;;;;;;5.62;58.61;101631.09;1827835;77;21502;-78
2020/12/02 03:57:39;;;;;;;10.32;6.87;;;;;;;5.60;58.63;101637.37;1841960;77;21212;-78
2020/12/02 04:00:09;;;;;;;7.90;5.45;;;;;;;5.59;58.68;101640.98;1812234;77;21125;-78
2020/12/02 04:02:38;;;;;;;10.35;5.78;;;;;;;5.56;58.78;101637.66;1801565;79;21068;-81
2020/12/02 04:05:06;;;;;;;8.70;5.95;;;;;;;5.60;58.64;101642.68;1801579;79;21790;-80
2020/12/02 04:07:34;;;;;;;10.03;7.22;;;;;;;5.64;58.64;101647.81;1801457;79;21176;-78
2020/12/02 04:10:02;;;;;;;9.08;6.03;;;;;;;5.66;58.59;101643.24;1801636;79;21065;-79
2020/12/02 04:12:30;;;;;;;9.05;6.42;;;;;;;5.69;58.57;101651.03;1770297;79;21477;-79
2020/12/02 04:14:58;;;;;;;9.33;6.62;;;;;;;5.72;58.58;101652.14;1801521;79;21707;-77
2020/12/02 04:17:26;;;;;;;12.45;7.33;;;;;;;5.73;58.42;101653.87;1817465;77;21421;-78
2020/12/02 04:19:54;;;;;;;9.00;6.08;;;;;;;5.74;58.48;101650.26;1837477;77;21165;-79
2020/12/02 04:22:22;;;;;;;7.83;5.28;;;;;;;5.77;58.47;101654.06;1838414;77;21142;-80
2020/12/02 04:24:49;;;;;;;8.70;4.95;;;;;;;5.78;58.31;101661.08;1835792;77;21125;-79
2020/12/02 04:27:17;;;;;;;8.40;5.42;;;;;;;5.78;58.39;101656.61;1835762;77;21415;-79
2020/12/02 04:29:45;;;;;;;8.63;5.85;;;;;;;5.79;58.32;101650.81;1842126;77;21598;-80
2020/12/02 04:32:13;;;;;;;7.12;5.12;;;;;;;5.81;58.34;101656.87;1848157;77;21193;-81
2020/12/02 04:34:41;;;;;;;7.47;5.83;;;;;;;5.82;58.27;101653.29;1844721;77;21189;-80
2020/12/02 04:37:09;;;;;;;9.38;6.12;;;;;;;5.83;58.18;101658.98;1842289;77;21034;-79
2020/12/02 04:39:37;;;;;;;8.33;6.00;;;;;;;5.80;58.15;101652.03;1842977;77;21109;-78
2020/12/02 04:42:06;;;;;;;8.13;5.42;;;;;;;5.76;58.16;101657.17;1841231;77;21203;-79
2020/12/02 04:44:33;;;;;;;7.55;5.40;;;;;;;5.75;58.17;101653.29;1804656;78;21202;-81
2020/12/02 04:47:02;;;;;;;10.63;7.12;;;;;;;5.68;58.43;101646.19;1838257;77;21514;-78
2020/12/02 04:49:33;;;;;;;11.95;6.95;;;;;;;5.67;58.60;101647.13;1833653;77;21042;-79
2020/12/02 04:52:13;;;;;;;8.68;6.10;;;;;;;5.59;58.81;101645.45;1834818;77;21506;-79
2020/12/02 04:54:42;;;;;;;7.60;5.60;;;;;;;5.47;58.91;101645.73;1821275;78;21406;-80
2020/12/02 04:57:10;;;;;;;10.63;6.35;;;;;;;5.45;58.92;101658.27;1804254;77;21034;-80
2020/12/02 04:59:40;;;;;;;8.65;5.67;;;;;;;5.34;58.82;101655.41;1829734;77;21511;-79
2020/12/02 05:02:24;;;;;;;8.20;5.83;;;;;;;5.25;59.05;101659.97;1813651;79;21100;-78
2020/12/02 05:04:56;;;;;;;10.70;7.08;;;;;;;5.18;59.23;101654.64;1790536;79;21155;-79
2020/12/02 05:07:30;;;;;;;12.25;7.53;;;;;;;5.09;59.33;101659.59;1856319;77;21190;-78
2020/12/02 05:10:11;;;;;;;13.65;8.80;;;;;;;5.08;59.51;101663.17;1796000;77;21159;-77
2020/12/02 05:12:41;;;;;;;17.98;9.53;;;;;;;5.04;59.58;101660.34;1816920;77;21491;-78
2020/12/02 05:15:28;;;;;;;21.33;10.50;;;;;;;5.01;59.67;101659.20;1796862;79;21718;-78
2020/12/02 05:18:21;;;;;;;23.45;10.63;;;;;;;5.05;59.69;101657.22;1807642;77;21216;-77
2020/12/02 05:24:18;;;;;;;44.05;24.60;;;;;;;5.19;59.50;101663.02;1825973;76;22772;-77
2020/12/02 05:26:49;;;;;;;48.15;26.65;;;;;;;5.14;59.51;101669.94;1813574;77;21398;-77
2020/12/02 05:29:51;;;;;;;40.35;22.30;;;;;;;5.15;59.46;101674.77;1847569;77;21351;-77
2020/12/02 05:32:37;;;;;;;72.47;43.65;;;;;;;5.17;59.44;101676.84;1859521;76;21250;-79
2020/12/02 05:35:15;;;;;;;69.45;43.30;;;;;;;5.18;59.41;101676.77;1848268;76;21095;-78
2020/12/02 05:37:51;;;;;;;72.05;44.67;;;;;;;5.24;59.53;101676.86;1815180;77;21202;-78
2020/12/02 05:40:20;;;;;;;58.70;35.17;;;;;;;5.28;59.41;101678.38;1793147;78;21187;-78
2020/12/02 05:42:53;;;;;;;55.40;30.17;;;;;;;5.30;59.40;101674.67;1793420;78;21266;-77
2020/12/02 05:45:34;;;;;;;42.75;23.95;;;;;;;5.37;59.40;101685.79;1787358;80;21231;-77
2020/12/02 05:48:02;;;;;;;41.55;23.77;;;;;;;5.40;59.35;101681.59;1806773;78;21189;-77
2020/12/02 05:50:30;;;;;;;35.05;20.25;;;;;;;5.41;59.26;101678.02;1759153;78;21173;-77
2020/12/02 05:53:36;;;;;;;29.20;20.17;;;;;;;5.45;59.35;101674.22;1792310;78;21195;-76
2020/12/02 05:56:06;;;;;;;36.58;20.45;;;;;;;5.48;59.25;101684.63;1832152;77;21188;-76
2020/12/02 05:58:34;;;;;;;38.35;24.57;;;;;;;5.45;59.10;101686.17;1834384;77;21033;-77
2020/12/02 06:01:02;;;;;;;46.30;30.45;;;;;;;5.35;59.05;101691.66;1822118;78;21216;-76
2020/12/02 06:03:34;;;;;;;34.60;23.92;;;;;;;5.26;59.20;101693.55;1841260;77;21204;-78
2020/12/02 06:06:04;;;;;;;32.63;22.00;;;;;;;5.24;59.38;101690.14;1822160;78;21180;-77
2020/12/02 06:08:36;;;;;;;34.10;19.50;;;;;;;5.25;59.43;101687.86;1822313;78;21365;-78
2020/12/02 06:11:22;;;;;;;30.85;17.35;;;;;;;5.21;59.49;101692.97;1769564;79;21064;-77
2020/12/02 06:14:01;;;;;;;23.57;12.75;;;;;;;5.12;59.53;101701.02;1814850;76;21221;-76
2020/12/02 06:16:37;;;;;;;;;;;;;;;5.06;59.57;101701.41;1838939;75;21552;-77
2020/12/02 06:19:19;;;;;;;22.02;12.93;;;;;;;5.02;59.59;101694.56;1804708;77;20619;-77
2020/12/02 06:21:58;;;;;;;22.62;13.98;;;;;;;4.99;59.73;101699.58;1808637;77;22112;-78
2020/12/02 06:24:42;;;;;;;28.50;19.07;;;;;;;5.03;59.83;101699.77;1813867;78;21193;-77
2020/12/02 06:27:23;;;;;;;33.20;22.85;;;;;;;5.06;59.86;101700.08;1845226;75;21830;-76
2020/12/02 06:30:08;;;;;;;34.40;20.43;;;;;;;5.11;59.88;101703.78;1806600;78;21979;-77
2020/12/02 06:32:38;;;;;;;27.98;18.07;;;;;;;5.15;59.89;101706.16;1824957;78;21109;-77
2020/12/02 06:35:16;;;;;;;39.48;23.70;;;;;;;5.23;59.85;101718.52;1812780;78;21367;-79
2020/12/02 06:38:25;;;;;;;37.20;24.27;;;;;;;5.26;59.72;101717.45;1817963;77;21115;-77
2020/12/02 06:41:07;;;;;;;33.38;20.48;;;;;;;5.25;59.60;101715.75;1814594;77;21112;-77
2020/12/02 06:43:53;;;;;;;43.48;26.07;;;;;;;5.26;59.59;101714.80;1822188;77;21117;-78
2020/12/02 06:46:36;;;;;;;51.15;35.00;;;;;;;5.24;59.47;101722.88;1823456;78;21098;-76
2020/12/02 06:49:11;;;;;;;48.02;30.25;;;;;;;5.25;59.48;101719.73;1787012;78;22797;-77
2020/12/02 06:51:58;;;;;;;37.08;24.67;;;;;;;5.18;59.42;101721.05;1773622;79;21669;-77
2020/12/02 06:54:29;;;;;;;29.50;18.35;;;;;;;5.15;59.44;101721.25;1782107;79;21375;-74
2020/12/02 06:57:05;;;;;;;35.52;19.80;;;;;;;5.11;59.55;101726.36;1771726;80;21150;-75
2020/12/02 06:59:33;;;;;;;29.48;18.77;;;;;;;5.08;59.49;101724.73;1776252;80;21109;-76
2020/12/02 07:02:05;;;;;;;34.05;21.27;;;;;;;5.11;59.52;101728.53;1750287;80;21453;-75
2020/12/02 07:04:35;;;;;;;33.00;19.12;;;;;;;5.13;59.58;101719.14;1747458;81;22092;-76
2020/12/02 07:07:04;;;;;;;33.83;19.48;;;;;;;5.15;59.49;101727.89;1770225;80;21796;-77
2020/12/02 07:09:32;;;;;;;36.33;20.05;;;;;;;5.16;59.49;101723.80;1772515;80;21526;-77
2020/12/02 07:12:06;;;;;;;46.90;20.95;;;;;;;5.19;59.43;101724.10;1780589;80;21149;-77
2020/12/02 07:14:38;;;;;;;97.97;35.23;;;;;;;5.18;59.40;101732.99;1785909;80;21580;-76
2020/12/02 07:17:13;;;;;;;119.95;43.95;;;;;;;5.15;59.42;101726.56;1796328;79;21103;-78
2020/12/02 07:19:45;;;;;;;115.03;45.17;;;;;;;5.19;59.48;101738.71;1748689;80;21377;-77
2020/12/02 07:22:18;;;;;;;155.63;63.83;;;;;;;5.22;59.49;101736.73;1771068;80;21143;-77
2020/12/02 07:24:50;;;;;;;120.53;48.25;;;;;;;5.31;59.44;101732.64;1788356;80;21117;-76
2020/12/02 07:27:21;;;;;;;70.25;34.25;;;;;;;5.36;59.29;101730.58;1795536;79;21427;-76
2020/12/02 07:30:02;;;;;;;69.45;31.50;;;;;;;5.41;59.11;101729.83;1766884;80;21089;-76
2020/12/02 07:32:30;;;;;;;49.90;23.47;;;;;;;5.45;59.13;101738.44;1798061;79;22491;-76
2020/12/02 07:35:08;;;;;;;39.23;21.15;;;;;;;5.45;58.84;101740.66;1765675;80;21664;-77
2020/12/02 07:37:36;;;;;;;32.98;19.48;;;;;;;5.39;58.80;101742.33;1786208;79;21361;-76
2020/12/02 07:40:05;;;;;;;33.08;19.62;;;;;;;5.38;58.90;101743.77;1790875;79;21168;-77
2020/12/02 07:42:38;;;;;;;28.62;16.48;;;;;;;5.37;58.96;101748.23;1795160;77;21180;-78
2020/12/02 07:45:23;;;;;;;35.78;21.75;;;;;;;5.41;58.96;101743.59;1796127;77;21433;-79
2020/12/02 07:48:16;;;;;;;32.60;19.23;;;;;;;5.36;59.01;101746.52;1767194;79;21120;-77
2020/12/02 07:50:53;;;;;;;33.88;19.12;;;;;;;5.35;59.11;101749.63;1773043;78;21207;-78
2020/12/02 07:53:50;;;;;;;31.93;17.05;;;;;;;5.31;59.15;101756.10;1791132;79;21247;-77
2020/12/02 07:56:38;;;;;;;31.10;17.62;;;;;;;5.29;59.15;101754.47;1763300;79;21209;-77
2020/12/02 07:59:18;;;;;;;36.15;21.23;;;;;;;5.28;59.17;101767.38;1756592;79;22312;-76
2020/12/02 08:02:01;;;;;;;44.33;24.80;;;;;;;5.26;59.31;101763.47;1771496;78;21142;-76
2020/12/02 08:04:51;;;;;;;50.20;27.10;;;;;;;5.30;59.31;101765.47;1781710;78;21109;-76
2020/12/02 08:07:20;;;;;;;48.73;24.32;;;;;;;5.28;59.42;101768.70;1765367;79;21128;-76
2020/12/02 08:09:50;;;;;;;39.63;21.55;;;;;;;5.19;59.55;101766.60;1755437;79;21627;-77
2020/12/02 08:12:28;;;;;;;30.68;17.23;;;;;;;5.13;59.64;101769.60;1770763;79;21364;-79
2020/12/02 08:15:06;;;;;;;32.38;19.35;;;;;;;5.06;59.77;101769.98;1795104;77;21604;-77
2020/12/02 08:17:34;;;;;;;36.35;20.52;;;;;;;5.07;59.89;101765.52;1799118;77;21115;-78
2020/12/02 08:20:27;;;;;;;39.05;22.17;;;;;;;5.04;59.96;101766.57;1799415;77;21568;-78
2020/12/02 08:22:55;;;;;;;25.30;15.53;;;;;;;5.00;60.06;101763.70;1767524;79;21107;-77
2020/12/02 08:25:29;;;;;;;23.50;14.98;;;;;;;5.00;60.38;101769.02;1795230;77;22221;-78
2020/12/02 08:28:00;;;;;;;26.12;14.05;;;;;;;5.02;60.28;101764.45;1762412;80;21119;-77
2020/12/02 08:30:30;;;;;;;22.02;14.05;;;;;;;5.07;60.29;101765.03;1796524;79;21113;-77
2020/12/02 08:33:03;;;;;;;25.30;14.50;;;;;;;5.14;60.23;101760.23;1776116;79;21627;-77
2020/12/02 08:35:46;;;;;;;22.52;14.00;;;;;;;5.20;60.14;101757.20;1784325;79;21137;-77
2020/12/02 08:38:29;;;;;;;28.90;16.52;;;;;;;5.08;60.42;101749.48;1772822;80;21906;-77
2020/12/02 08:40:59;;;;;;;29.45;16.87;;;;;;;5.05;60.51;101747.50;1794230;77;21182;-77
2020/12/02 08:43:35;;;;;;;34.27;17.37;;;;;;;5.27;60.12;101742.62;1780658;79;21484;-76
2020/12/02 08:46:18;;;;;;;40.60;20.77;;;;;;;5.36;59.91;101742.54;1799196;77;21109;-76
2020/12/02 08:48:53;;;;;;;39.30;19.17;;;;;;;5.41;59.68;101743.11;1790604;79;21117;-78
2020/12/02 08:51:22;;;;;;;23.98;13.60;;;;;;;5.44;59.52;101739.39;1767834;79;21383;-77
2020/12/02 08:53:51;;;;;;;30.10;16.95;;;;;;;5.42;59.45;101742.16;1775153;80;21117;-77
2020/12/02 08:56:34;;;;;;;44.42;24.75;;;;;;;5.39;59.36;101741.00;1776545;78;21141;-77
2020/12/02 08:59:08;;;;;;;39.03;23.38;;;;;;;5.38;59.55;101733.98;1776733;78;21078;-76
2020/12/02 09:01:36;;;;;;;29.48;18.17;;;;;;;5.40;59.32;101738.72;1772040;77;21121;-77
2020/12/02 09:04:03;;;;;;;26.42;15.23;;;;;;;5.40;59.36;101733.41;1778880;79;21438;-77
2020/12/02 09:06:31;;;;;;;34.73;18.80;;;;;;;5.40;59.17;101730.75;1766619;79;21134;-76
2020/12/02 09:08:59;;;;;;;33.20;18.65;;;;;;;5.36;59.13;101727.92;1765946;80;21118;-77
2020/12/02 09:11:34;;;;;;;40.00;21.15;;;;;;;5.39;59.17;101733.51;1771921;80;21090;-77
2020/12/02 09:14:02;;;;;;;34.33;19.25;;;;;;;5.40;59.22;101725.91;1777328;80;21639;-77
2020/12/02 09:16:38;;;;;;;36.58;21.10;;;;;;;5.47;59.26;101726.78;1776932;80;21548;-77
2020/12/02 09:19:09;;;;;;;48.15;27.05;;;;;;;5.52;58.89;101726.02;1778463;78;21102;-77
2020/12/02 09:21:39;;;;;;;41.33;25.00;;;;;;;5.53;58.85;101721.08;1795602;77;21108;-77
2020/12/02 09:24:07;;;;;;;38.42;21.57;;;;;;;5.59;58.66;101714.55;1768345;80;21562;-77
2020/12/02 09:26:35;;;;;;;29.05;16.90;;;;;;;5.60;58.43;101721.09;1794081;79;21089;-77
2020/12/02 09:29:04;;;;;;;25.82;16.23;;;;;;;5.59;58.15;101715.41;1768144;80;21352;-78
2020/12/02 09:31:32;;;;;;;28.62;15.85;;;;;;;5.55;57.96;101720.52;1763217;80;21129;-77
2020/12/02 09:34:03;;;;;;;31.10;16.87;;;;;;;5.51;57.70;101720.81;1767214;80;21118;-77
2020/12/02 09:36:31;;;;;;;29.32;16.23;;;;;;;5.46;57.60;101725.08;1796412;77;21116;-78
2020/12/02 09:39:00;;;;;;;34.67;19.55;;;;;;;5.41;57.75;101721.85;1767914;79;21663;-77
2020/12/02 09:41:36;;;;;;;47.53;25.88;;;;;;;5.43;57.95;101719.94;1765568;80;22261;-78
2020/12/02 09:44:41;;;;;;;38.02;22.60;;;;;;;5.51;57.85;101723.47;1765558;80;21645;-76
2020/12/02 09:47:20;;;;;;;28.52;17.57;;;;;;;5.59;57.96;101726.03;1769687;79;21120;-76
2020/12/02 09:49:51;;;;;;;32.03;18.25;;;;;;;5.72;57.79;101729.23;1773129;79;20943;-76
2020/12/02 09:52:40;;;;;;;28.30;17.23;;;;;;;5.79;57.35;101724.78;1768334;79;21712;-77
2020/12/02 09:55:23;;;;;;;30.60;17.92;;;;;;;5.85;57.12;101724.38;1788717;79;21619;-78
2020/12/02 09:57:52;;;;;;;31.12;19.00;;;;;;;5.89;56.76;101725.05;1789528;77;21132;-78
2020/12/02 10:00:22;;;;;;;30.32;16.85;;;;;;;5.97;56.61;101725.45;1794662;77;21140;-79
2020/12/02 10:03:07;;;;;;;28.00;16.50;;;;;;;5.95;56.24;101727.82;1794780;77;21124;-79
2020/12/02 10:05:52;;;;;;;33.30;16.57;;;;;;;6.00;56.10;101733.73;1754625;79;21108;-77
2020/12/02 10:08:54;;;;;;;32.75;16.40;;;;;;;6.03;55.80;101729.05;1775897;78;22280;-77
2020/12/02 10:12:02;;;;;;;26.45;14.53;;;;;;;6.01;55.56;101721.66;1775050;80;21522;-77
2020/12/02 10:14:51;;;;;;;31.48;16.32;;;;;;;5.80;56.12;101722.97;1778481;80;21090;-76
2020/12/02 10:17:28;;;;;;;38.02;18.05;;;;;;;6.03;55.57;101725.53;1780791;78;21120;-75
2020/12/02 10:20:44;;;;;;;39.90;19.95;;;;;;;5.91;55.76;101719.17;1783221;78;21128;-78
2020/12/02 10:23:23;;;;;;;28.25;14.95;;;;;;;5.88;55.86;101724.67;1774382;80;21360;-77
2020/12/02 10:26:13;;;;;;;22.67;12.70;;;;;;;6.03;55.64;101720.22;1773363;78;21668;-78
2020/12/02 10:28:49;;;;;;;28.67;14.65;;;;;;;6.06;55.69;101719.55;1775731;78;21622;-77
2020/12/02 10:31:33;;;;;;;36.35;18.05;;;;;;;6.06;55.92;101724.87;1773806;79;21109;-78
2020/12/02 10:34:24;;;;;;;40.20;18.25;;;;;;;6.16;55.78;101717.16;1772987;78;21106;-76
2020/12/02 10:36:59;;;;;;;29.57;16.52;;;;;;;6.15;55.99;101719.44;1776957;78;21325;-78
2020/12/02 10:39:31;;;;;;;31.60;15.60;;;;;;;6.14;55.96;101719.55;1778213;80;21080;-78
2020/12/02 10:42:27;;;;;;;28.32;17.75;;;;;;;6.08;55.97;101716.30;1765412;78;21143;-78
2020/12/02 10:45:03;;;;;;;25.57;15.85;;;;;;;6.14;55.53;101716.89;1776621;78;21121;-78
2020/12/02 10:47:55;;;;;;;35.75;19.40;;;;;;;6.06;55.31;101710.72;1779433;78;21558;-78
2020/12/02 10:50:30;;;;;;;33.20;18.17;;;;;;;5.94;55.38;101712.34;1794751;77;21377;-78
2020/12/02 10:53:02;;;;;;;45.60;24.18;;;;;;;5.81;55.27;101710.05;1744995;80;21308;-77
2020/12/02 10:55:34;;;;;;;42.62;25.12;;;;;;;5.70;55.59;101709.41;1763469;79;21102;-80
2020/12/02 10:58:21;;;;;;;29.30;18.17;;;;;;;5.73;55.62;101713.69;1776980;78;21101;-80
2020/12/02 11:00:53;;;;;;;35.85;19.60;;;;;;;5.76;55.74;101716.14;1776770;78;21125;-78
2020/12/02 11:03:33;;;;;;;32.20;19.82;;;;;;;5.83;55.76;101720.12;1792933;79;21189;-77
2020/12/02 11:06:31;;;;;;;29.07;14.73;;;;;;;5.91;55.84;101719.17;1764874;79;21504;-77
2020/12/02 11:09:26;;;;;;;27.05;15.78;;;;;;;5.95;55.68;101721.17;1791423;77;21946;-78
2020/12/02 11:12:21;;;;;;;31.85;18.02;;;;;;;5.97;55.50;101719.29;1766672;79;21121;-77
2020/12/02 11:15:04;;;;;;;24.35;15.23;;;;;;;6.01;55.41;101717.66;1794903;77;21389;-78
2020/12/02 11:17:58;;;;;;;38.67;24.18;;;;;;;6.05;55.30;101716.52;1767432;79;21376;-78
2020/12/02 11:21:09;;;;;;;35.38;23.32;;;;;;;6.08;54.93;101713.64;1776033;80;21130;-78
2020/12/02 11:23:57;;;;;;;40.88;24.20;;;;;;;6.15;54.78;101710.61;1771933;80;21114;-77
2020/12/02 11:26:35;;;;;;;39.90;25.05;;;;;;;6.15;54.75;101708.80;1776907;78;21604;-78
2020/12/02 11:29:06;;;;;;;39.67;23.02;;;;;;;6.19;54.50;101714.30;1791913;79;21603;-78
2020/12/02 11:31:58;;;;;;;29.48;19.82;;;;;;;6.20;54.35;101717.81;1762557;80;21440;-79
2020/12/02 11:35:03;;;;;;;28.83;16.45;;;;;;;6.18;54.37;101717.07;1793352;79;21144;-78
2020/12/02 11:38:15;;;;;;;28.98;16.95;;;;;;;6.23;54.10;101721.61;1766835;80;21124;-77
2020/12/02 11:40:48;;;;;;;30.17;16.62;;;;;;;6.25;53.91;101721.02;1766684;80;21127;-79
2020/12/02 11:43:33;;;;;;;30.45;15.88;;;;;;;6.24;53.94;101725.50;1767902;79;21237;-77
2020/12/02 11:46:04;;;;;;;29.72;14.65;;;;;;;6.26;53.94;101730.70;1770098;80;22227;-78
2020/12/02 11:48:36;;;;;;;29.63;15.08;;;;;;;6.25;53.88;101731.67;1772249;79;21186;-77
2020/12/02 11:51:39;;;;;;;31.05;14.75;;;;;;;6.22;54.22;101730.52;1772503;80;21127;-77
2020/12/02 11:54:10;;;;;;;24.50;13.98;;;;;;;6.23;54.10;101726.94;1773026;80;21315;-77
2020/12/02 11:56:51;;;;;;;25.15;13.78;;;;;;;6.21;54.09;101727.02;1795299;79;21580;-77
2020/12/02 11:59:28;;;;;;;28.95;17.85;;;;;;;6.22;53.97;101726.09;1771137;80;22151;-80
2020/12/02 12:02:25;;;;;;;26.17;16.35;;;;;;;6.24;54.06;101729.48;1792501;77;21212;-79
2020/12/02 12:05:17;;;;;;;;;;;;;;;6.26;54.05;101730.70;1793159;79;21220;-78